sensor_id;sensor_type;location;lat;lon;timestamp;P1;durP1;ratioP1;P2;durP2;ratioP2
53040;SDS011;39326;42.650;23.248;2022-08-21T00:00:50;5.45;;;4.10;;
53040;SDS011;39326;42.650;23.248;2022-08-21T00:03:16;6.40;;;4.15;;
53040;SDS011;39326;42.650;23.248;2022-08-21T00:05:43;4.63;;;3.90;;
53040;SDS011;39326;42.650;23.248;2022-08-21T00:08:10;4.80;;;3.60;;
53040;SDS011;39326;42.650;23.248;2022-08-21T00:10:36;5.75;;;3.72;;
53040;SDS011;39326;42.650;23.248;2022-08-21T00:13:04;6.07;;;3.78;;
53040;SDS011;39326;42.650;23.248;2022-08-21T00:15:30;7.10;;;4.03;;
53040;SDS011;39326;42.650;23.248;2022-08-21T00:17:57;6.87;;;4.07;;
53040;SDS011;39326;42.650;23.248;2022-08-21T00:20:23;6.37;;;3.70;;
53040;SDS011;39326;42.650;23.248;2022-08-21T00:22:49;6.83;;;3.83;;
53040;SDS011;39326;42.650;23.248;2022-08-21T00:25:16;8.53;;;4.87;;
53040;SDS011;39326;42.650;23.248;2022-08-21T00:27:42;5.97;;;4.75;;
53040;SDS011;39326;42.650;23.248;2022-08-21T00:30:08;5.73;;;4.10;;
53040;SDS011;39326;42.650;23.248;2022-08-21T00:32:36;5.90;;;4.13;;
53040;SDS011;39326;42.650;23.248;2022-08-21T00:35:03;5.40;;;4.40;;
53040;SDS011;39326;42.650;23.248;2022-08-21T00:37:32;6.78;;;4.10;;
53040;SDS011;39326;42.650;23.248;2022-08-21T00:39:58;5.68;;;4.82;;
53040;SDS011;39326;42.650;23.248;2022-08-21T00:42:24;10.00;;;5.28;;
53040;SDS011;39326;42.650;23.248;2022-08-21T00:44:50;7.28;;;5.07;;
53040;SDS011;39326;42.650;23.248;2022-08-21T00:47:16;7.07;;;5.60;;
53040;SDS011;39326;42.650;23.248;2022-08-21T00:49:42;6.55;;;5.55;;
53040;SDS011;39326;42.650;23.248;2022-08-21T00:52:09;5.35;;;4.85;;
53040;SDS011;39326;42.650;23.248;2022-08-21T00:54:39;6.17;;;5.53;;
53040;SDS011;39326;42.650;23.248;2022-08-21T00:57:12;6.10;;;5.22;;
53040;SDS011;39326;42.650;23.248;2022-08-21T00:59:41;7.00;;;4.50;;
53040;SDS011;39326;42.650;23.248;2022-08-21T01:02:10;5.97;;;4.97;;
53040;SDS011;39326;42.650;23.248;2022-08-21T01:04:36;8.70;;;4.63;;
53040;SDS011;39326;42.650;23.248;2022-08-21T01:07:01;5.53;;;4.37;;
53040;SDS011;39326;42.650;23.248;2022-08-21T01:09:28;6.90;;;5.10;;
53040;SDS011;39326;42.650;23.248;2022-08-21T01:11:53;7.63;;;4.20;;
53040;SDS011;39326;42.650;23.248;2022-08-21T01:14:19;7.30;;;4.93;;
53040;SDS011;39326;42.650;23.248;2022-08-21T01:16:46;8.13;;;4.30;;
53040;SDS011;39326;42.650;23.248;2022-08-21T01:19:14;8.32;;;4.43;;
53040;SDS011;39326;42.650;23.248;2022-08-21T01:21:42;7.78;;;4.45;;
53040;SDS011;39326;42.650;23.248;2022-08-21T01:24:08;6.77;;;4.90;;
53040;SDS011;39326;42.650;23.248;2022-08-21T01:26:34;9.33;;;5.07;;
53040;SDS011;39326;42.650;23.248;2022-08-21T01:29:03;7.87;;;4.40;;
53040;SDS011;39326;42.650;23.248;2022-08-21T01:31:30;7.38;;;5.38;;
53040;SDS011;39326;42.650;23.248;2022-08-21T01:33:57;7.53;;;5.53;;
53040;SDS011;39326;42.650;23.248;2022-08-21T01:36:24;7.80;;;5.23;;
53040;SDS011;39326;42.650;23.248;2022-08-21T01:38:51;9.57;;;5.93;;
53040;SDS011;39326;42.650;23.248;2022-08-21T01:41:17;9.52;;;6.45;;
53040;SDS011;39326;42.650;23.248;2022-08-21T01:43:43;9.40;;;4.90;;
53040;SDS011;39326;42.650;23.248;2022-08-21T01:46:09;6.30;;;4.97;;
53040;SDS011;39326;42.650;23.248;2022-08-21T01:48:36;7.57;;;5.10;;
53040;SDS011;39326;42.650;23.248;2022-08-21T01:51:03;6.93;;;5.83;;
53040;SDS011;39326;42.650;23.248;2022-08-21T01:53:29;9.07;;;5.20;;
53040;SDS011;39326;42.650;23.248;2022-08-21T01:55:54;5.10;;;3.75;;
53040;SDS011;39326;42.650;23.248;2022-08-21T01:58:20;5.32;;;3.45;;
53040;SDS011;39326;42.650;23.248;2022-08-21T02:00:45;5.33;;;3.83;;
53040;SDS011;39326;42.650;23.248;2022-08-21T02:03:11;6.80;;;3.80;;
53040;SDS011;39326;42.650;23.248;2022-08-21T02:05:36;8.57;;;3.67;;
53040;SDS011;39326;42.650;23.248;2022-08-21T02:08:02;5.33;;;3.47;;
53040;SDS011;39326;42.650;23.248;2022-08-21T02:10:29;5.40;;;3.50;;
53040;SDS011;39326;42.650;23.248;2022-08-21T02:12:56;6.13;;;4.20;;
53040;SDS011;39326;42.650;23.248;2022-08-21T02:15:23;5.80;;;3.77;;
53040;SDS011;39326;42.650;23.248;2022-08-21T02:17:50;7.40;;;3.47;;
53040;SDS011;39326;42.650;23.248;2022-08-21T02:20:20;5.33;;;3.27;;
53040;SDS011;39326;42.650;23.248;2022-08-21T02:22:56;6.23;;;3.30;;
53040;SDS011;39326;42.650;23.248;2022-08-21T02:25:22;6.93;;;3.60;;
53040;SDS011;39326;42.650;23.248;2022-08-21T02:27:49;6.00;;;3.33;;
53040;SDS011;39326;42.650;23.248;2022-08-21T02:30:17;4.70;;;3.33;;
53040;SDS011;39326;42.650;23.248;2022-08-21T02:32:46;6.17;;;3.50;;
53040;SDS011;39326;42.650;23.248;2022-08-21T02:35:11;7.68;;;3.63;;
53040;SDS011;39326;42.650;23.248;2022-08-21T02:38:12;5.80;;;3.27;;
53040;SDS011;39326;42.650;23.248;2022-08-21T02:40:32;7.57;;;3.77;;
53040;SDS011;39326;42.650;23.248;2022-08-21T02:43:00;6.77;;;3.77;;
53040;SDS011;39326;42.650;23.248;2022-08-21T02:45:27;6.63;;;3.70;;
53040;SDS011;39326;42.650;23.248;2022-08-21T02:48:03;5.10;;;3.50;;
53040;SDS011;39326;42.650;23.248;2022-08-21T02:50:32;9.50;;;3.95;;
53040;SDS011;39326;42.650;23.248;2022-08-21T02:53:18;7.43;;;3.70;;
53040;SDS011;39326;42.650;23.248;2022-08-21T02:55:45;4.27;;;3.87;;
53040;SDS011;39326;42.650;23.248;2022-08-21T02:58:13;6.00;;;3.60;;
53040;SDS011;39326;42.650;23.248;2022-08-21T03:00:41;7.33;;;3.37;;
53040;SDS011;39326;42.650;23.248;2022-08-21T03:03:08;5.60;;;3.78;;
53040;SDS011;39326;42.650;23.248;2022-08-21T03:05:35;8.70;;;3.90;;
53040;SDS011;39326;42.650;23.248;2022-08-21T03:08:03;7.00;;;3.50;;
53040;SDS011;39326;42.650;23.248;2022-08-21T03:10:34;9.80;;;4.20;;
53040;SDS011;39326;42.650;23.248;2022-08-21T03:13:01;6.03;;;3.80;;
53040;SDS011;39326;42.650;23.248;2022-08-21T03:15:28;4.05;;;3.50;;
53040;SDS011;39326;42.650;23.248;2022-08-21T03:17:54;6.10;;;4.00;;
53040;SDS011;39326;42.650;23.248;2022-08-21T03:20:21;6.67;;;3.60;;
53040;SDS011;39326;42.650;23.248;2022-08-21T03:22:48;4.17;;;3.63;;
53040;SDS011;39326;42.650;23.248;2022-08-21T03:25:15;5.90;;;3.20;;
53040;SDS011;39326;42.650;23.248;2022-08-21T03:27:40;10.73;;;4.00;;
53040;SDS011;39326;42.650;23.248;2022-08-21T03:30:06;7.90;;;3.43;;
53040;SDS011;39326;42.650;23.248;2022-08-21T03:32:33;6.03;;;3.20;;
53040;SDS011;39326;42.650;23.248;2022-08-21T03:35:00;6.53;;;3.50;;
53040;SDS011;39326;42.650;23.248;2022-08-21T03:37:26;6.40;;;3.47;;
53040;SDS011;39326;42.650;23.248;2022-08-21T03:39:51;6.03;;;2.83;;
53040;SDS011;39326;42.650;23.248;2022-08-21T03:42:17;6.70;;;3.23;;
53040;SDS011;39326;42.650;23.248;2022-08-21T03:44:42;7.33;;;3.40;;
53040;SDS011;39326;42.650;23.248;2022-08-21T03:47:08;7.13;;;3.30;;
53040;SDS011;39326;42.650;23.248;2022-08-21T03:49:34;5.47;;;3.37;;
53040;SDS011;39326;42.650;23.248;2022-08-21T03:52:00;8.27;;;3.53;;
53040;SDS011;39326;42.650;23.248;2022-08-21T03:54:26;5.53;;;3.20;;
53040;SDS011;39326;42.650;23.248;2022-08-21T03:56:52;6.07;;;3.47;;
53040;SDS011;39326;42.650;23.248;2022-08-21T03:59:17;5.07;;;3.20;;
53040;SDS011;39326;42.650;23.248;2022-08-21T04:01:53;6.63;;;3.90;;
53040;SDS011;39326;42.650;23.248;2022-08-21T04:04:20;8.07;;;3.30;;
53040;SDS011;39326;42.650;23.248;2022-08-21T04:06:46;9.25;;;3.53;;
53040;SDS011;39326;42.650;23.248;2022-08-21T04:09:12;11.50;;;4.10;;
53040;SDS011;39326;42.650;23.248;2022-08-21T04:11:37;6.83;;;3.73;;
53040;SDS011;39326;42.650;23.248;2022-08-21T04:14:03;7.97;;;4.10;;
53040;SDS011;39326;42.650;23.248;2022-08-21T04:16:29;4.50;;;3.73;;
53040;SDS011;39326;42.650;23.248;2022-08-21T04:18:55;9.40;;;5.43;;
53040;SDS011;39326;42.650;23.248;2022-08-21T04:21:21;7.60;;;4.60;;
53040;SDS011;39326;42.650;23.248;2022-08-21T04:23:47;8.47;;;4.60;;
53040;SDS011;39326;42.650;23.248;2022-08-21T04:26:13;7.97;;;4.40;;
53040;SDS011;39326;42.650;23.248;2022-08-21T04:28:38;6.37;;;4.90;;
53040;SDS011;39326;42.650;23.248;2022-08-21T04:31:04;5.70;;;5.17;;
53040;SDS011;39326;42.650;23.248;2022-08-21T04:33:30;7.45;;;5.70;;
53040;SDS011;39326;42.650;23.248;2022-08-21T04:35:55;6.00;;;4.97;;
53040;SDS011;39326;42.650;23.248;2022-08-21T04:38:20;10.53;;;6.53;;
53040;SDS011;39326;42.650;23.248;2022-08-21T04:40:46;7.20;;;6.33;;
53040;SDS011;39326;42.650;23.248;2022-08-21T04:43:13;11.83;;;6.47;;
53040;SDS011;39326;42.650;23.248;2022-08-21T04:45:40;7.70;;;6.27;;
53040;SDS011;39326;42.650;23.248;2022-08-21T04:48:10;10.87;;;7.43;;
53040;SDS011;39326;42.650;23.248;2022-08-21T04:50:39;11.20;;;7.30;;
53040;SDS011;39326;42.650;23.248;2022-08-21T04:53:05;8.40;;;6.93;;
53040;SDS011;39326;42.650;23.248;2022-08-21T04:55:35;8.93;;;6.73;;
53040;SDS011;39326;42.650;23.248;2022-08-21T04:58:02;6.87;;;6.20;;
53040;SDS011;39326;42.650;23.248;2022-08-21T05:00:29;7.93;;;6.97;;
53040;SDS011;39326;42.650;23.248;2022-08-21T05:02:54;10.80;;;8.30;;
53040;SDS011;39326;42.650;23.248;2022-08-21T05:05:23;8.53;;;7.13;;
53040;SDS011;39326;42.650;23.248;2022-08-21T05:07:50;7.60;;;6.70;;
53040;SDS011;39326;42.650;23.248;2022-08-21T05:10:17;11.07;;;8.23;;
53040;SDS011;39326;42.650;23.248;2022-08-21T05:12:42;11.53;;;8.00;;
53040;SDS011;39326;42.650;23.248;2022-08-21T05:15:10;12.43;;;8.03;;
53040;SDS011;39326;42.650;23.248;2022-08-21T05:17:40;11.13;;;7.80;;
53040;SDS011;39326;42.650;23.248;2022-08-21T05:20:06;8.17;;;7.20;;
53040;SDS011;39326;42.650;23.248;2022-08-21T05:22:33;11.30;;;7.60;;
53040;SDS011;39326;42.650;23.248;2022-08-21T05:24:58;9.00;;;7.10;;
53040;SDS011;39326;42.650;23.248;2022-08-21T05:27:24;7.43;;;6.73;;
53040;SDS011;39326;42.650;23.248;2022-08-21T05:29:49;9.77;;;6.70;;
53040;SDS011;39326;42.650;23.248;2022-08-21T05:32:15;8.10;;;7.28;;
53040;SDS011;39326;42.650;23.248;2022-08-21T05:34:40;9.27;;;7.60;;
53040;SDS011;39326;42.650;23.248;2022-08-21T05:37:06;9.90;;;7.80;;
53040;SDS011;39326;42.650;23.248;2022-08-21T05:39:31;12.43;;;8.98;;
53040;SDS011;39326;42.650;23.248;2022-08-21T05:41:57;10.27;;;9.17;;
53040;SDS011;39326;42.650;23.248;2022-08-21T05:44:23;9.70;;;8.53;;
53040;SDS011;39326;42.650;23.248;2022-08-21T05:46:48;9.47;;;8.57;;
53040;SDS011;39326;42.650;23.248;2022-08-21T05:49:14;8.83;;;7.97;;
53040;SDS011;39326;42.650;23.248;2022-08-21T05:51:40;12.63;;;8.20;;
53040;SDS011;39326;42.650;23.248;2022-08-21T05:54:06;9.53;;;7.70;;
53040;SDS011;39326;42.650;23.248;2022-08-21T05:56:32;8.73;;;7.93;;
53040;SDS011;39326;42.650;23.248;2022-08-21T05:58:58;9.38;;;7.53;;
53040;SDS011;39326;42.650;23.248;2022-08-21T06:01:23;6.77;;;6.17;;
53040;SDS011;39326;42.650;23.248;2022-08-21T06:03:49;7.77;;;7.00;;
53040;SDS011;39326;42.650;23.248;2022-08-21T06:06:14;10.33;;;6.97;;
53040;SDS011;39326;42.650;23.248;2022-08-21T06:08:40;7.72;;;7.03;;
53040;SDS011;39326;42.650;23.248;2022-08-21T06:11:06;8.53;;;7.23;;
53040;SDS011;39326;42.650;23.248;2022-08-21T06:13:32;8.82;;;7.10;;
53040;SDS011;39326;42.650;23.248;2022-08-21T06:16:06;9.43;;;8.47;;
53040;SDS011;39326;42.650;23.248;2022-08-21T06:18:39;10.35;;;9.25;;
53040;SDS011;39326;42.650;23.248;2022-08-21T06:21:05;8.90;;;7.57;;
53040;SDS011;39326;42.650;23.248;2022-08-21T06:23:32;10.77;;;8.20;;
53040;SDS011;39326;42.650;23.248;2022-08-21T06:25:59;9.25;;;8.25;;
53040;SDS011;39326;42.650;23.248;2022-08-21T06:28:25;8.43;;;7.13;;
53040;SDS011;39326;42.650;23.248;2022-08-21T06:30:51;7.53;;;6.75;;
53040;SDS011;39326;42.650;23.248;2022-08-21T06:33:16;7.47;;;6.40;;
53040;SDS011;39326;42.650;23.248;2022-08-21T06:35:42;6.22;;;5.70;;
53040;SDS011;39326;42.650;23.248;2022-08-21T06:38:08;7.90;;;6.07;;
53040;SDS011;39326;42.650;23.248;2022-08-21T06:40:34;8.02;;;6.30;;
53040;SDS011;39326;42.650;23.248;2022-08-21T06:43:07;8.55;;;6.43;;
53040;SDS011;39326;42.650;23.248;2022-08-21T06:45:34;9.82;;;7.47;;
53040;SDS011;39326;42.650;23.248;2022-08-21T06:48:00;8.65;;;6.20;;
53040;SDS011;39326;42.650;23.248;2022-08-21T06:50:25;6.53;;;5.75;;
53040;SDS011;39326;42.650;23.248;2022-08-21T06:52:58;8.57;;;6.40;;
53040;SDS011;39326;42.650;23.248;2022-08-21T06:55:32;7.40;;;6.07;;
53040;SDS011;39326;42.650;23.248;2022-08-21T06:57:58;7.65;;;6.10;;
53040;SDS011;39326;42.650;23.248;2022-08-21T07:00:23;8.43;;;6.60;;
53040;SDS011;39326;42.650;23.248;2022-08-21T07:02:49;7.47;;;6.78;;
53040;SDS011;39326;42.650;23.248;2022-08-21T07:05:15;8.82;;;7.00;;
53040;SDS011;39326;42.650;23.248;2022-08-21T07:07:40;8.73;;;7.65;;
53040;SDS011;39326;42.650;23.248;2022-08-21T07:10:06;8.57;;;6.72;;
53040;SDS011;39326;42.650;23.248;2022-08-21T07:12:32;9.23;;;6.72;;
53040;SDS011;39326;42.650;23.248;2022-08-21T07:14:57;7.45;;;6.75;;
53040;SDS011;39326;42.650;23.248;2022-08-21T07:17:23;9.43;;;8.45;;
53040;SDS011;39326;42.650;23.248;2022-08-21T07:19:48;8.23;;;6.32;;
53040;SDS011;39326;42.650;23.248;2022-08-21T07:22:16;8.23;;;6.40;;
53040;SDS011;39326;42.650;23.248;2022-08-21T07:24:45;8.02;;;6.65;;
53040;SDS011;39326;42.650;23.248;2022-08-21T07:27:11;7.40;;;6.60;;
53040;SDS011;39326;42.650;23.248;2022-08-21T07:29:37;8.65;;;7.20;;
53040;SDS011;39326;42.650;23.248;2022-08-21T07:32:03;9.50;;;6.95;;
53040;SDS011;39326;42.650;23.248;2022-08-21T07:34:29;8.38;;;7.00;;
53040;SDS011;39326;42.650;23.248;2022-08-21T07:36:55;8.73;;;7.68;;
53040;SDS011;39326;42.650;23.248;2022-08-21T07:39:20;10.10;;;7.82;;
53040;SDS011;39326;42.650;23.248;2022-08-21T07:41:46;8.82;;;8.02;;
53040;SDS011;39326;42.650;23.248;2022-08-21T07:44:11;8.95;;;7.72;;
53040;SDS011;39326;42.650;23.248;2022-08-21T07:46:36;11.27;;;8.05;;
53040;SDS011;39326;42.650;23.248;2022-08-21T07:49:02;11.75;;;7.78;;
53040;SDS011;39326;42.650;23.248;2022-08-21T07:51:27;8.98;;;7.45;;
53040;SDS011;39326;42.650;23.248;2022-08-21T07:53:54;9.00;;;8.18;;
53040;SDS011;39326;42.650;23.248;2022-08-21T07:56:21;9.50;;;8.27;;
53040;SDS011;39326;42.650;23.248;2022-08-21T07:58:47;8.63;;;7.75;;
53040;SDS011;39326;42.650;23.248;2022-08-21T08:01:13;8.45;;;7.60;;
53040;SDS011;39326;42.650;23.248;2022-08-21T08:03:38;8.82;;;8.13;;
53040;SDS011;39326;42.650;23.248;2022-08-21T08:06:04;8.70;;;7.78;;
53040;SDS011;39326;42.650;23.248;2022-08-21T08:08:31;8.68;;;7.88;;
53040;SDS011;39326;42.650;23.248;2022-08-21T08:10:57;9.93;;;8.57;;
53040;SDS011;39326;42.650;23.248;2022-08-21T08:13:23;10.70;;;8.73;;
53040;SDS011;39326;42.650;23.248;2022-08-21T08:15:49;11.23;;;9.20;;
53040;SDS011;39326;42.650;23.248;2022-08-21T08:18:15;10.32;;;9.27;;
53040;SDS011;39326;42.650;23.248;2022-08-21T08:20:41;9.48;;;8.55;;
53040;SDS011;39326;42.650;23.248;2022-08-21T08:23:09;15.05;;;10.60;;
53040;SDS011;39326;42.650;23.248;2022-08-21T08:25:36;10.75;;;9.40;;
53040;SDS011;39326;42.650;23.248;2022-08-21T08:28:01;11.43;;;8.80;;
53040;SDS011;39326;42.650;23.248;2022-08-21T08:30:27;9.48;;;8.48;;
53040;SDS011;39326;42.650;23.248;2022-08-21T08:32:52;10.75;;;9.27;;
53040;SDS011;39326;42.650;23.248;2022-08-21T08:35:18;11.57;;;9.18;;
53040;SDS011;39326;42.650;23.248;2022-08-21T08:37:43;9.48;;;8.60;;
53040;SDS011;39326;42.650;23.248;2022-08-21T08:40:15;10.70;;;9.50;;
53040;SDS011;39326;42.650;23.248;2022-08-21T08:42:47;9.90;;;8.65;;
53040;SDS011;39326;42.650;23.248;2022-08-21T08:45:16;9.48;;;7.65;;
53040;SDS011;39326;42.650;23.248;2022-08-21T08:47:45;10.82;;;6.75;;
53040;SDS011;39326;42.650;23.248;2022-08-21T08:50:17;7.38;;;6.68;;
53040;SDS011;39326;42.650;23.248;2022-08-21T08:53:00;10.32;;;6.13;;
53040;SDS011;39326;42.650;23.248;2022-08-21T08:55:39;10.90;;;6.93;;
53040;SDS011;39326;42.650;23.248;2022-08-21T08:58:06;7.95;;;6.13;;
53040;SDS011;39326;42.650;23.248;2022-08-21T09:00:33;7.60;;;6.05;;
53040;SDS011;39326;42.650;23.248;2022-08-21T09:03:00;8.15;;;6.55;;
53040;SDS011;39326;42.650;23.248;2022-08-21T09:05:28;7.50;;;6.80;;
53040;SDS011;39326;42.650;23.248;2022-08-21T09:11:04;7.50;;;5.60;;
53040;SDS011;39326;42.650;23.248;2022-08-21T09:13:47;8.30;;;5.70;;
53040;SDS011;39326;42.650;23.248;2022-08-21T09:16:39;8.30;;;6.35;;
53040;SDS011;39326;42.650;23.248;2022-08-21T09:25:08;6.13;;;5.03;;
53040;SDS011;39326;42.650;23.248;2022-08-21T09:27:36;6.50;;;5.20;;
53040;SDS011;39326;42.650;23.248;2022-08-21T09:30:03;8.20;;;5.07;;
53040;SDS011;39326;42.650;23.248;2022-08-21T09:32:31;8.07;;;5.13;;
53040;SDS011;39326;42.650;23.248;2022-08-21T09:37:26;12.48;;;5.70;;
53040;SDS011;39326;42.650;23.248;2022-08-21T09:39:54;8.55;;;5.15;;
53040;SDS011;39326;42.650;23.248;2022-08-21T09:42:22;5.90;;;5.15;;
53040;SDS011;39326;42.650;23.248;2022-08-21T09:45:00;7.13;;;5.82;;
53040;SDS011;39326;42.650;23.248;2022-08-21T09:47:32;8.20;;;5.75;;
53040;SDS011;39326;42.650;23.248;2022-08-21T09:50:07;7.13;;;5.43;;
53040;SDS011;39326;42.650;23.248;2022-08-21T09:52:43;7.50;;;5.63;;
53040;SDS011;39326;42.650;23.248;2022-08-21T09:55:19;7.15;;;5.57;;
53040;SDS011;39326;42.650;23.248;2022-08-21T09:58:29;7.55;;;5.60;;
53040;SDS011;39326;42.650;23.248;2022-08-21T10:01:00;7.15;;;5.47;;
53040;SDS011;39326;42.650;23.248;2022-08-21T10:03:29;6.63;;;5.63;;
53040;SDS011;39326;42.650;23.248;2022-08-21T10:06:02;7.32;;;5.55;;
53040;SDS011;39326;42.650;23.248;2022-08-21T10:08:31;7.05;;;5.82;;
53040;SDS011;39326;42.650;23.248;2022-08-21T10:11:09;8.73;;;5.65;;
53040;SDS011;39326;42.650;23.248;2022-08-21T10:13:42;6.03;;;5.25;;
53040;SDS011;39326;42.650;23.248;2022-08-21T10:16:24;6.53;;;4.93;;
53040;SDS011;39326;42.650;23.248;2022-08-21T10:22:00;6.95;;;5.22;;
53040;SDS011;39326;42.650;23.248;2022-08-21T10:24:44;7.75;;;5.07;;
53040;SDS011;39326;42.650;23.248;2022-08-21T10:30:11;9.60;;;5.63;;
53040;SDS011;39326;42.650;23.248;2022-08-21T10:35:23;6.80;;;5.20;;
53040;SDS011;39326;42.650;23.248;2022-08-21T10:40:36;6.88;;;4.82;;
53040;SDS011;39326;42.650;23.248;2022-08-21T10:43:35;7.90;;;5.30;;
53040;SDS011;39326;42.650;23.248;2022-08-21T10:54:19;7.20;;;5.30;;
53040;SDS011;39326;42.650;23.248;2022-08-21T10:56:50;7.55;;;5.88;;
53040;SDS011;39326;42.650;23.248;2022-08-21T10:59:39;8.55;;;5.70;;
53040;SDS011;39326;42.650;23.248;2022-08-21T11:02:29;6.60;;;5.50;;
53040;SDS011;39326;42.650;23.248;2022-08-21T11:05:02;8.82;;;5.88;;
53040;SDS011;39326;42.650;23.248;2022-08-21T11:07:36;7.70;;;6.18;;
53040;SDS011;39326;42.650;23.248;2022-08-21T11:10:19;7.15;;;4.55;;
53040;SDS011;39326;42.650;23.248;2022-08-21T11:12:54;7.15;;;4.88;;
53040;SDS011;39326;42.650;23.248;2022-08-21T11:18:17;5.90;;;4.78;;
53040;SDS011;39326;42.650;23.248;2022-08-21T11:21:32;6.57;;;5.00;;
53040;SDS011;39326;42.650;23.248;2022-08-21T11:23:59;6.18;;;4.75;;
53040;SDS011;39326;42.650;23.248;2022-08-21T11:26:44;5.95;;;5.07;;
53040;SDS011;39326;42.650;23.248;2022-08-21T11:29:23;8.43;;;5.38;;
53040;SDS011;39326;42.650;23.248;2022-08-21T11:40:35;5.38;;;4.78;;
53040;SDS011;39326;42.650;23.248;2022-08-21T11:51:04;6.38;;;5.03;;
53040;SDS011;39326;42.650;23.248;2022-08-21T11:53:39;6.82;;;5.53;;
53040;SDS011;39326;42.650;23.248;2022-08-21T11:56:24;6.43;;;4.95;;
53040;SDS011;39326;42.650;23.248;2022-08-21T11:58:55;7.88;;;5.38;;
53040;SDS011;39326;42.650;23.248;2022-08-21T12:01:25;8.52;;;5.85;;
53040;SDS011;39326;42.650;23.248;2022-08-21T12:04:00;6.55;;;4.72;;
53040;SDS011;39326;42.650;23.248;2022-08-21T12:06:33;8.45;;;5.05;;
53040;SDS011;39326;42.650;23.248;2022-08-21T12:09:03;6.63;;;4.85;;
53040;SDS011;39326;42.650;23.248;2022-08-21T12:11:32;6.10;;;5.40;;
53040;SDS011;39326;42.650;23.248;2022-08-21T12:14:13;6.65;;;5.00;;
53040;SDS011;39326;42.650;23.248;2022-08-21T12:16:41;5.97;;;4.70;;
53040;SDS011;39326;42.650;23.248;2022-08-21T12:21:53;7.22;;;4.90;;
53040;SDS011;39326;42.650;23.248;2022-08-21T12:29:59;7.55;;;4.55;;
53040;SDS011;39326;42.650;23.248;2022-08-21T12:32:30;8.63;;;5.28;;
53040;SDS011;39326;42.650;23.248;2022-08-21T12:35:11;7.68;;;5.10;;
53040;SDS011;39326;42.650;23.248;2022-08-21T12:37:45;5.50;;;4.97;;
53040;SDS011;39326;42.650;23.248;2022-08-21T12:42:51;5.07;;;4.57;;
53040;SDS011;39326;42.650;23.248;2022-08-21T12:47:51;6.28;;;4.55;;
53040;SDS011;39326;42.650;23.248;2022-08-21T12:50:42;6.95;;;5.00;;
53040;SDS011;39326;42.650;23.248;2022-08-21T12:55:48;5.80;;;5.30;;
53040;SDS011;39326;42.650;23.248;2022-08-21T12:58:18;7.95;;;5.28;;
53040;SDS011;39326;42.650;23.248;2022-08-21T13:01:02;7.53;;;4.88;;
53040;SDS011;39326;42.650;23.248;2022-08-21T13:03:30;6.32;;;4.78;;
53040;SDS011;39326;42.650;23.248;2022-08-21T13:05:58;5.93;;;4.82;;
53040;SDS011;39326;42.650;23.248;2022-08-21T13:08:24;5.18;;;4.53;;
53040;SDS011;39326;42.650;23.248;2022-08-21T13:10:56;5.70;;;4.30;;
53040;SDS011;39326;42.650;23.248;2022-08-21T13:13:28;4.88;;;4.38;;
53040;SDS011;39326;42.650;23.248;2022-08-21T13:15:59;4.47;;;4.07;;
53040;SDS011;39326;42.650;23.248;2022-08-21T13:18:29;4.78;;;4.35;;
53040;SDS011;39326;42.650;23.248;2022-08-21T13:21:29;5.63;;;4.68;;
53040;SDS011;39326;42.650;23.248;2022-08-21T13:23:51;5.75;;;5.13;;
53040;SDS011;39326;42.650;23.248;2022-08-21T13:26:20;6.72;;;4.90;;
53040;SDS011;39326;42.650;23.248;2022-08-21T13:28:47;5.13;;;4.22;;
53040;SDS011;39326;42.650;23.248;2022-08-21T13:31:18;7.35;;;4.88;;
53040;SDS011;39326;42.650;23.248;2022-08-21T13:33:49;6.72;;;5.07;;
53040;SDS011;39326;42.650;23.248;2022-08-21T13:36:20;4.80;;;4.30;;
53040;SDS011;39326;42.650;23.248;2022-08-21T13:38:51;7.00;;;4.68;;
53040;SDS011;39326;42.650;23.248;2022-08-21T13:41:21;7.78;;;5.25;;
53040;SDS011;39326;42.650;23.248;2022-08-21T13:43:56;6.32;;;4.78;;
53040;SDS011;39326;42.650;23.248;2022-08-21T13:46:28;7.75;;;5.47;;
53040;SDS011;39326;42.650;23.248;2022-08-21T13:48:56;7.32;;;4.68;;
53040;SDS011;39326;42.650;23.248;2022-08-21T13:51:24;6.47;;;5.45;;
53040;SDS011;39326;42.650;23.248;2022-08-21T13:53:50;6.07;;;4.55;;
53040;SDS011;39326;42.650;23.248;2022-08-21T13:56:28;7.43;;;5.85;;
53040;SDS011;39326;42.650;23.248;2022-08-21T13:58:55;8.63;;;5.85;;
53040;SDS011;39326;42.650;23.248;2022-08-21T14:01:25;12.07;;;8.32;;
53040;SDS011;39326;42.650;23.248;2022-08-21T14:03:57;17.48;;;13.88;;
53040;SDS011;39326;42.650;23.248;2022-08-21T14:06:27;9.90;;;8.55;;
53040;SDS011;39326;42.650;23.248;2022-08-21T14:09:03;10.68;;;7.05;;
53040;SDS011;39326;42.650;23.248;2022-08-21T14:11:34;8.23;;;6.30;;
53040;SDS011;39326;42.650;23.248;2022-08-21T14:14:02;6.13;;;5.28;;
53040;SDS011;39326;42.650;23.248;2022-08-21T14:16:45;8.00;;;5.55;;
53040;SDS011;39326;42.650;23.248;2022-08-21T14:19:28;8.82;;;7.47;;
53040;SDS011;39326;42.650;23.248;2022-08-21T14:22:21;11.30;;;7.95;;
53040;SDS011;39326;42.650;23.248;2022-08-21T14:25:11;22.50;;;17.50;;
53040;SDS011;39326;42.650;23.248;2022-08-21T14:27:43;19.95;;;15.25;;
53040;SDS011;39326;42.650;23.248;2022-08-21T14:30:19;9.35;;;7.57;;
53040;SDS011;39326;42.650;23.248;2022-08-21T14:32:47;7.53;;;6.18;;
53040;SDS011;39326;42.650;23.248;2022-08-21T14:35:13;8.52;;;7.72;;
53040;SDS011;39326;42.650;23.248;2022-08-21T14:37:42;18.67;;;14.73;;
53040;SDS011;39326;42.650;23.248;2022-08-21T14:40:08;19.80;;;16.33;;
53040;SDS011;39326;42.650;23.248;2022-08-21T14:42:34;10.32;;;7.85;;
53040;SDS011;39326;42.650;23.248;2022-08-21T14:45:01;12.52;;;8.70;;
53040;SDS011;39326;42.650;23.248;2022-08-21T14:47:40;8.00;;;7.20;;
53040;SDS011;39326;42.650;23.248;2022-08-21T14:50:07;7.60;;;6.45;;
53040;SDS011;39326;42.650;23.248;2022-08-21T14:52:33;7.25;;;6.53;;
53040;SDS011;39326;42.650;23.248;2022-08-21T14:54:59;8.20;;;6.20;;
53040;SDS011;39326;42.650;23.248;2022-08-21T14:57:25;7.95;;;6.13;;
53040;SDS011;39326;42.650;23.248;2022-08-21T14:59:53;6.15;;;5.18;;
53040;SDS011;39326;42.650;23.248;2022-08-21T15:02:18;7.40;;;6.03;;
53040;SDS011;39326;42.650;23.248;2022-08-21T15:04:44;8.60;;;5.35;;
53040;SDS011;39326;42.650;23.248;2022-08-21T15:07:09;8.35;;;5.47;;
53040;SDS011;39326;42.650;23.248;2022-08-21T15:09:35;5.88;;;5.32;;
53040;SDS011;39326;42.650;23.248;2022-08-21T15:12:00;7.72;;;5.95;;
53040;SDS011;39326;42.650;23.248;2022-08-21T15:14:29;11.73;;;6.32;;
53040;SDS011;39326;42.650;23.248;2022-08-21T15:16:57;10.48;;;6.25;;
53040;SDS011;39326;42.650;23.248;2022-08-21T15:19:23;10.70;;;6.90;;
53040;SDS011;39326;42.650;23.248;2022-08-21T15:21:48;7.75;;;6.07;;
53040;SDS011;39326;42.650;23.248;2022-08-21T15:24:14;12.98;;;6.55;;
53040;SDS011;39326;42.650;23.248;2022-08-21T15:26:40;9.00;;;5.97;;
53040;SDS011;39326;42.650;23.248;2022-08-21T15:29:06;9.95;;;5.78;;
53040;SDS011;39326;42.650;23.248;2022-08-21T15:31:33;7.47;;;6.35;;
53040;SDS011;39326;42.650;23.248;2022-08-21T15:34:00;13.32;;;6.45;;
53040;SDS011;39326;42.650;23.248;2022-08-21T15:36:25;7.80;;;6.00;;
53040;SDS011;39326;42.650;23.248;2022-08-21T15:38:51;10.98;;;7.13;;
53040;SDS011;39326;42.650;23.248;2022-08-21T15:41:16;7.45;;;6.75;;
53040;SDS011;39326;42.650;23.248;2022-08-21T15:43:47;7.95;;;7.20;;
53040;SDS011;39326;42.650;23.248;2022-08-21T15:46:14;10.30;;;7.53;;
53040;SDS011;39326;42.650;23.248;2022-08-21T15:48:42;17.13;;;12.77;;
53040;SDS011;39326;42.650;23.248;2022-08-21T15:51:09;15.57;;;13.27;;